Station Historical Data
Daily Summary for May 14, 2017 Units:  English    Metric   Both
« Previous Day
Next Day »
Daily Weekly Monthly Yearly Custom
  High: Low: Average:
Temperature: 82.0 °F 55.4 °F 68 °F
Dew Point: 59.1 °F 51.3 °F 54.9 °F
Humidity: 92% 37% 66%
Wind Speed: 1.0mph 0.0mph 0mph
Wind Gust: 3.0mph - -
Wind- - WSW
Pressure: 30.04 in 29.87 in -
Precipitation: 0.00 in    
Historical Graphs
 
 
Tabular Data for May 14, 2017
Time Temperature Dew Point Pressure Wind Wind Speed Wind Gust Humidity Rainfall Rate (Hourly) solar Conditions
00:00 61.8 °F 53.1 °F 29.87 in Calm   1.0 mph 73% 0.00 in WeatherDisplay:10.37 W/m2 SCT
00:15 61.4 °F 53.0 °F 29.88 in Calm     74% 0.00 in WeatherDisplay:10.37 W/m2 SCT
00:30 61.2 °F 52.8 °F 29.88 in Calm   1.0 mph 74% 0.00 in WeatherDisplay:10.37 W/m2 SCT
00:45 60.7 °F 52.7 °F 29.89 in Calm     75% 0.00 in WeatherDisplay:10.37 W/m2 SCT
01:00 60.0 °F 52.7 °F 29.89 in Calm     77% 0.00 in WeatherDisplay:10.37 W/m2 SCT
01:15 59.3 °F 52.8 °F 29.90 in Calm     79% 0.00 in WeatherDisplay:10.37 W/m2 SCT
01:30 58.9 °F 53.1 °F 29.90 in Calm     81% 0.00 in WeatherDisplay:10.37 W/m2 SCT
01:45 58.5 °F 52.7 °F 29.90 in Calm     81% 0.00 in WeatherDisplay:10.37 W/m2 SCT
02:00 58.5 °F 53.1 °F 29.90 in Calm   1.0 mph 82% 0.00 in WeatherDisplay:10.37 W/m2 SCT
02:15 58.7 °F 53.2 °F 29.90 in Calm   1.0 mph 82% 0.00 in WeatherDisplay:10.37 W/m2 SCT
02:30 58.5 °F 53.0 °F 29.90 in Calm     82% 0.00 in WeatherDisplay:10.37 W/m2 SCT
02:45 57.9 °F 52.8 °F 29.90 in Calm     83% 0.00 in WeatherDisplay:10.37 W/m2 SCT
03:00 57.3 °F 52.5 °F 29.90 in Calm     84% 0.00 in WeatherDisplay:10.37 W/m2 SCT
03:15 56.9 °F 52.4 °F 29.90 in Calm     85% 0.00 in WeatherDisplay:10.37 W/m2 SCT
03:30 56.5 °F 52.4 °F 29.90 in Calm     86% 0.00 in WeatherDisplay:10.37 W/m2 SCT
03:45 56.2 °F 52.1 °F 29.91 in Calm     86% 0.00 in WeatherDisplay:10.37 W/m2 SCT
04:00 55.4 °F 51.3 °F 29.91 in Calm     86% 0.00 in WeatherDisplay:10.37 W/m2 SCT
04:15 55.4 °F 51.3 °F 29.91 in Calm     86% 0.00 in WeatherDisplay:10.37 W/m2 SCT
04:30 55.4 °F 51.3 °F 29.91 in Calm     86% 0.00 in WeatherDisplay:10.37 W/m2 SCT
04:45 55.4 °F 51.3 °F 29.91 in Calm     86% 0.00 in WeatherDisplay:10.37 W/m2 SCT
05:00 55.4 °F 51.3 °F 29.92 in Calm     86% 0.00 in WeatherDisplay:10.37 W/m2 SCT
05:15 55.4 °F 51.3 °F 29.92 in Calm     86% 0.00 in WeatherDisplay:10.37 W/m2 SCT
05:30 55.4 °F 51.3 °F 29.93 in Calm     86% 0.00 in WeatherDisplay:10.37 W/m2 SCT
05:45 55.4 °F 51.3 °F 29.93 in Calm     86% 0.00 in WeatherDisplay:10.37 W/m2 SCT
06:00 55.4 °F 51.3 °F 29.94 in Calm     86% 0.00 in WeatherDisplay:10.37 W/m2 SCT
06:15 55.4 °F 51.3 °F 29.95 in Calm     86% 0.00 in WeatherDisplay:10.37 W/m2 SCT
06:30 55.4 °F 51.3 °F 29.95 in Calm     86% 0.00 in WeatherDisplay:10.37 W/m2 SCT
06:45 55.4 °F 51.3 °F 29.95 in Calm     86% 0.00 in WeatherDisplay:10.37 W/m2 SCT
07:00 55.4 °F 51.3 °F 29.96 in Calm     86% 0.00 in WeatherDisplay:10.37 W/m2 SCT
07:15 55.4 °F 51.3 °F 29.97 in Calm     86% 0.00 in WeatherDisplay:10.37 W/m2 SCT
07:30 55.4 °F 51.3 °F 29.98 in Calm     86% 0.00 in WeatherDisplay:10.37 W/m2 SCT
07:45 56.2 °F 53.9 °F 29.99 in Calm     92% 0.00 in WeatherDisplay:10.37 W/m2 SCT
08:00 57.1 °F 54.8 °F 29.99 in Calm     92% 0.00 in WeatherDisplay:10.37 W/m2 SCT
08:15 58.5 °F 55.9 °F 29.99 in Calm     91% 0.00 in WeatherDisplay:10.37 W/m2 SCT
08:30 60.3 °F 57.3 °F 30.00 in Calm   1.0 mph 90% 0.00 in WeatherDisplay:10.37 W/m2 SCT
08:45 62.2 °F 58.3 °F 30.01 in Calm   1.0 mph 87% 0.00 in WeatherDisplay:10.37 W/m2 SCT
09:00 64.0 °F 58.0 °F 30.02 in Calm   2.0 mph 81% 0.00 in WeatherDisplay:10.37 W/m2 SCT
09:15 65.8 °F 58.0 °F 30.03 in Calm   2.0 mph 76% 0.00 in WeatherDisplay:10.37 W/m2 SCT
09:30 66.8 °F 56.3 °F 30.03 in Calm   1.0 mph 69% 0.00 in WeatherDisplay:10.37 W/m2 SCT
09:45 67.7 °F 56.4 °F 30.03 in Calm   2.0 mph 67% 0.00 in WeatherDisplay:10.37 W/m2 SCT
10:00 68.6 °F 54.6 °F 30.04 in NNW 1.0 mph 2.0 mph 61% 0.00 in WeatherDisplay:10.37 W/m2 SCT
10:15 69.8 °F 55.7 °F 30.04 in Calm   2.0 mph 61% 0.00 in WeatherDisplay:10.37 W/m2 SCT
10:30 70.7 °F 55.2 °F 30.04 in Calm   1.0 mph 58% 0.00 in WeatherDisplay:10.37 W/m2 SCT
10:45 71.8 °F 55.7 °F 30.04 in Calm   1.0 mph 57% 0.00 in WeatherDisplay:10.37 W/m2 SCT
11:00 72.2 °F 55.7 °F 30.04 in Calm   2.0 mph 56% 0.00 in WeatherDisplay:10.37 W/m2 SCT
11:15 72.6 °F 54.5 °F 30.04 in Calm   1.0 mph 53% 0.00 in WeatherDisplay:10.37 W/m2 SCT
11:30 73.0 °F 54.9 °F 30.04 in Calm   1.0 mph 53% 0.00 in WeatherDisplay:10.37 W/m2 SCT
11:45 73.6 °F 55.9 °F 30.04 in Calm   1.0 mph 54% 0.00 in WeatherDisplay:10.37 W/m2 SCT
12:00 74.2 °F 54.9 °F 30.03 in NW 1.0 mph 2.0 mph 51% 0.00 in WeatherDisplay:10.37 W/m2 SCT
12:15 74.2 °F 55.9 °F 30.03 in Calm   2.0 mph 53% 0.00 in WeatherDisplay:10.37 W/m2 SCT
12:30 76.0 °F 57.1 °F 30.03 in Calm   2.0 mph 52% 0.00 in WeatherDisplay:10.37 W/m2 SCT
12:45 76.6 °F 57.1 °F 30.03 in Calm   3.0 mph 51% 0.00 in WeatherDisplay:10.37 W/m2 SCT
13:00 78.2 °F 56.9 °F 30.03 in Calm   2.0 mph 48% 0.00 in WeatherDisplay:10.37 W/m2 SCT
13:15 78.7 °F 59.1 °F 30.02 in Calm   2.0 mph 51% 0.00 in WeatherDisplay:10.37 W/m2 SCT
13:30 79.3 °F 59.0 °F 30.02 in Calm   2.0 mph 50% 0.00 in WeatherDisplay:10.37 W/m2 SCT
13:45 78.7 °F 55.6 °F 30.02 in Calm   2.0 mph 45% 0.00 in WeatherDisplay:10.37 W/m2 SCT
14:00 79.5 °F 56.3 °F 30.02 in East 1.0 mph 2.0 mph 45% 0.00 in WeatherDisplay:10.37 W/m2 SCT
14:15 79.2 °F 55.4 °F 30.01 in Calm   2.0 mph 44% 0.00 in WeatherDisplay:10.37 W/m2 SCT
14:30 79.6 °F 57.0 °F 30.01 in Calm   3.0 mph 46% 0.00 in WeatherDisplay:10.37 W/m2 SCT
14:45 79.3 °F 56.1 °F 30.01 in Calm   2.0 mph 45% 0.00 in WeatherDisplay:10.37 W/m2 SCT
15:00 79.2 °F 57.8 °F 30.00 in Calm   2.0 mph 48% 0.00 in WeatherDisplay:10.37 W/m2 SCT
15:15 79.5 °F 55.6 °F 30.00 in Calm   2.0 mph 44% 0.00 in WeatherDisplay:10.37 W/m2 SCT
15:30 78.8 °F 56.3 °F 30.00 in Calm   2.0 mph 46% 0.00 in WeatherDisplay:10.37 W/m2 SCT
15:45 79.3 °F 56.7 °F 29.99 in Calm   2.0 mph 46% 0.00 in WeatherDisplay:10.37 W/m2 SCT
16:00 79.4 °F 55.0 °F 29.99 in Calm   2.0 mph 43% 0.00 in WeatherDisplay:10.37 W/m2 SCT
16:15 79.4 °F 53.7 °F 29.98 in Calm   2.0 mph 41% 0.00 in WeatherDisplay:10.37 W/m2 SCT
16:30 79.8 °F 55.3 °F 29.98 in Calm   2.0 mph 43% 0.00 in WeatherDisplay:10.37 W/m2 SCT
16:45 80.3 °F 54.5 °F 29.97 in Calm   1.0 mph 41% 0.00 in WeatherDisplay:10.37 W/m2 SCT
17:00 80.2 °F 55.0 °F 29.97 in Calm   1.0 mph 42% 0.00 in WeatherDisplay:10.37 W/m2 SCT
17:15 82.0 °F 54.6 °F 29.97 in Calm   1.0 mph 39% 0.00 in WeatherDisplay:10.37 W/m2 SCT
17:30 81.2 °F 52.4 °F 29.97 in Calm   1.0 mph 37% 0.00 in WeatherDisplay:10.37 W/m2 SCT
17:45 80.8 °F 53.5 °F 29.96 in Calm     39% 0.00 in WeatherDisplay:10.37 W/m2 SCT
18:00 80.4 °F 53.9 °F 29.96 in Calm     40% 0.00 in WeatherDisplay:10.37 W/m2 SCT
18:15 80.6 °F 54.7 °F 29.95 in Calm   1.0 mph 41% 0.00 in WeatherDisplay:10.37 W/m2 SCT
18:30 78.7 °F 53.7 °F 29.95 in Calm   1.0 mph 42% 0.00 in WeatherDisplay:10.37 W/m2 SCT
18:45 77.8 °F 54.1 °F 29.95 in Calm   1.0 mph 44% 0.00 in WeatherDisplay:10.37 W/m2 SCT
19:00 77.1 °F 55.3 °F 29.96 in Calm     47% 0.00 in WeatherDisplay:10.37 W/m2 SCT
19:15 76.8 °F 57.3 °F 29.96 in Calm   1.0 mph 51% 0.00 in WeatherDisplay:10.37 W/m2 SCT
19:30 75.9 °F 57.6 °F 29.96 in Calm   1.0 mph 53% 0.00 in WeatherDisplay:10.37 W/m2 SCT
19:45 75.3 °F 57.5 °F 29.96 in Calm   1.0 mph 54% 0.00 in WeatherDisplay:10.37 W/m2 SCT
20:00 74.7 °F 58.0 °F 29.95 in Calm     56% 0.00 in WeatherDisplay:10.37 W/m2 SCT
20:15 73.9 °F 57.2 °F 29.96 in Calm   1.0 mph 56% 0.00 in WeatherDisplay:10.37 W/m2 SCT
20:30 73.1 °F 57.4 °F 29.96 in Calm   1.0 mph 58% 0.00 in WeatherDisplay:10.37 W/m2 SCT
20:45 72.4 °F 57.3 °F 29.96 in Calm     59% 0.00 in WeatherDisplay:10.37 W/m2 SCT
21:00 71.8 °F 57.6 °F 29.96 in Calm     61% 0.00 in WeatherDisplay:10.37 W/m2 SCT
21:15 71.2 °F 57.0 °F 29.96 in Calm     61% 0.00 in WeatherDisplay:10.37 W/m2 SCT
21:30 70.4 °F 57.6 °F 29.96 in Calm     64% 0.00 in WeatherDisplay:10.37 W/m2 SCT
21:45 69.4 °F 57.6 °F 29.96 in Calm     66% 0.00 in WeatherDisplay:10.37 W/m2 SCT
22:00 68.3 °F 57.8 °F 29.97 in Calm     69% 0.00 in WeatherDisplay:10.37 W/m2 SCT
22:15 67.6 °F 57.9 °F 29.97 in Calm     71% 0.00 in WeatherDisplay:10.37 W/m2 SCT
22:30 67.0 °F 58.0 °F 29.98 in Calm     73% 0.00 in WeatherDisplay:10.37 W/m2 SCT
22:45 66.3 °F 58.2 °F 29.98 in Calm     75% 0.00 in WeatherDisplay:10.37 W/m2 SCT
23:00 65.6 °F 57.8 °F 29.98 in Calm     76% 0.00 in WeatherDisplay:10.37 W/m2 SCT
23:15 65.0 °F 58.0 °F 29.99 in Calm     78% 0.00 in WeatherDisplay:10.37 W/m2 SCT
23:30 64.6 °F 57.9 °F 29.99 in Calm     79% 0.00 in WeatherDisplay:10.37 W/m2 SCT
23:45 64.2 °F 57.9 °F 29.99 in Calm     80% 0.00 in WeatherDisplay:10.37 W/m2 SCT
Piedmont Bend
Compliments of Weather Underground - 4 mb